createdAt,value
2019-01-30T00:00:47.080Z,14.40
2019-01-30T00:03:35.322Z,14.23
2019-01-30T00:06:23.508Z,13.83
2019-01-30T00:09:11.393Z,14.43
2019-01-30T00:11:59.253Z,14.73
2019-01-30T00:14:47.083Z,14.77
2019-01-30T00:17:34.987Z,14.70
2019-01-30T00:20:23.060Z,15.27
2019-01-30T00:23:10.892Z,15.70
2019-01-30T00:25:58.788Z,14.50
2019-01-30T00:28:46.346Z,15.67
2019-01-30T00:31:34.417Z,14.93
2019-01-30T00:34:22.102Z,15.37
2019-01-30T00:37:09.971Z,16.33
2019-01-30T00:39:57.734Z,15.57
2019-01-30T00:42:45.603Z,16.13
2019-01-30T00:45:33.467Z,15.90
2019-01-30T00:48:21.408Z,16.23
2019-01-30T00:51:09.115Z,16.00
2019-01-30T00:53:56.922Z,15.87
2019-01-30T00:56:44.683Z,15.17
2019-01-30T00:59:32.364Z,14.83
2019-01-30T01:02:20.303Z,14.20
2019-01-30T01:05:08.143Z,14.57
2019-01-30T01:07:56.008Z,14.10
2019-01-30T01:10:43.879Z,14.30
2019-01-30T01:13:31.856Z,12.53
2019-01-30T01:16:19.340Z,13.33
2019-01-30T01:19:07.264Z,13.93
2019-01-30T01:21:55.117Z,14.23
2019-01-30T01:24:43.220Z,13.43
2019-01-30T01:27:31.007Z,14.03
2019-01-30T01:30:25.647Z,12.47
2019-01-30T01:33:13.449Z,13.40
2019-01-30T01:36:01.228Z,13.27
2019-01-30T01:38:49.381Z,12.50
2019-01-30T01:41:37.584Z,11.83
2019-01-30T01:44:25.224Z,12.47
2019-01-30T01:47:13.038Z,12.03
2019-01-30T01:50:00.975Z,13.70
2019-01-30T01:52:49.122Z,12.20
2019-01-30T01:55:37.086Z,12.03
2019-01-30T01:58:24.745Z,11.57
2019-01-30T02:01:12.649Z,11.80
2019-01-30T02:04:00.870Z,11.07
2019-01-30T02:06:48.672Z,12.80
2019-01-30T02:09:36.547Z,11.40
2019-01-30T02:12:24.602Z,11.70
2019-01-30T02:15:15.696Z,11.37
2019-01-30T02:18:46.085Z,11.40
2019-01-30T02:25:36.094Z,11.63
2019-01-30T02:31:36.094Z,10.50
2019-01-30T02:34:25.155Z,9.87
2019-01-30T02:37:12.776Z,10.37
2019-01-30T02:40:00.706Z,10.17
2019-01-30T02:42:48.840Z,10.53
2019-01-30T02:45:36.556Z,9.97
2019-01-30T02:48:24.638Z,11.03
2019-01-30T02:51:12.409Z,10.63
2019-01-30T02:54:00.489Z,9.83
2019-01-30T02:56:48.390Z,9.83
2019-01-30T02:59:36.085Z,9.57
2019-01-30T03:02:24.045Z,9.67
2019-01-30T03:05:13.532Z,9.73
2019-01-30T03:08:00.980Z,9.53
2019-01-30T03:10:48.805Z,9.60
2019-01-30T03:13:36.687Z,9.97
2019-01-30T03:16:24.860Z,10.07
2019-01-30T03:19:12.800Z,9.93
2019-01-30T03:22:00.708Z,10.57
2019-01-30T03:24:48.433Z,10.20
2019-01-30T03:27:36.493Z,10.50
2019-01-30T03:30:26.910Z,10.03
2019-01-30T03:33:14.977Z,11.07
2019-01-30T03:36:02.853Z,8.77
2019-01-30T03:38:50.452Z,8.87
2019-01-30T03:41:38.100Z,9.20
2019-01-30T03:44:26.001Z,8.83
2019-01-30T03:47:13.894Z,9.33
2019-01-30T03:50:01.681Z,8.57
2019-01-30T03:52:49.487Z,10.07
2019-01-30T03:55:37.116Z,9.47
2019-01-30T04:07:40.665Z,8.90
2019-01-30T04:29:01.538Z,9.07
2019-01-30T04:31:49.272Z,8.80
2019-01-30T04:34:37.180Z,8.60
2019-01-30T04:37:25.424Z,8.90
2019-01-30T04:40:15.844Z,8.67
2019-01-30T04:43:03.778Z,8.67
2019-01-30T04:45:51.481Z,8.37
2019-01-30T04:48:39.426Z,7.27
2019-01-30T04:51:27.455Z,8.43
2019-01-30T04:54:15.280Z,8.97
2019-01-30T04:57:03.007Z,8.40
2019-01-30T04:59:50.993Z,8.07
2019-01-30T05:02:38.978Z,8.90
2019-01-30T05:05:26.629Z,8.73
2019-01-30T05:08:14.557Z,8.93
2019-01-30T05:11:02.462Z,8.63
2019-01-30T05:13:50.920Z,8.77
2019-01-30T05:16:38.820Z,8.57
2019-01-30T05:19:26.405Z,8.17
2019-01-30T05:22:14.477Z,8.17
2019-01-30T05:25:02.077Z,8.00
2019-01-30T05:27:49.710Z,7.73
2019-01-30T05:30:37.690Z,8.17
2019-01-30T05:33:25.694Z,7.73
2019-01-30T05:36:13.605Z,7.10
2019-01-30T05:39:01.200Z,7.87
2019-01-30T05:41:49.025Z,7.40
2019-01-30T05:44:36.781Z,7.40
2019-01-30T05:47:24.354Z,7.17
2019-01-30T05:50:13.627Z,7.50
2019-01-30T05:53:01.184Z,7.97
2019-01-30T05:55:50.787Z,8.00
2019-01-30T05:58:40.634Z,8.00
2019-01-30T06:01:28.416Z,8.10
2019-01-30T06:04:16.496Z,8.47
2019-01-30T06:07:04.506Z,8.03
2019-01-30T06:09:52.604Z,8.40
2019-01-30T06:12:40.544Z,8.07
2019-01-30T06:15:28.984Z,8.43
2019-01-30T06:18:16.603Z,8.57
2019-01-30T06:21:04.652Z,8.73
2019-01-30T06:23:52.567Z,7.87
2019-01-30T06:26:40.513Z,9.07
2019-01-30T06:29:28.317Z,8.47
2019-01-30T06:32:21.833Z,8.43
2019-01-30T06:35:06.818Z,8.70
2019-01-30T06:37:54.560Z,8.10
2019-01-30T06:40:42.189Z,8.10
2019-01-30T06:43:29.841Z,8.50
2019-01-30T06:46:17.846Z,8.30
2019-01-30T06:49:05.577Z,7.93
2019-01-30T06:51:53.458Z,8.50
2019-01-30T06:54:41.213Z,8.53
2019-01-30T06:57:28.864Z,8.37
2019-01-30T07:00:20.080Z,8.13
2019-01-30T07:03:07.798Z,8.57
2019-01-30T07:05:55.665Z,9.10
2019-01-30T07:08:43.486Z,9.00
2019-01-30T07:11:31.297Z,7.87
2019-01-30T07:14:18.924Z,7.90
2019-01-30T07:17:06.627Z,8.27
2019-01-30T07:19:54.773Z,7.73
2019-01-30T07:22:42.748Z,7.30
2019-01-30T07:25:30.526Z,7.50
2019-01-30T07:28:18.436Z,8.37
2019-01-30T07:31:06.437Z,7.77
2019-01-30T07:33:54.258Z,9.57
2019-01-30T07:36:41.790Z,9.90
2019-01-30T07:39:29.648Z,8.90
2019-01-30T07:42:17.798Z,8.67
2019-01-30T07:45:08.496Z,10.40
2019-01-30T07:47:56.052Z,9.60
2019-01-30T07:50:43.776Z,9.60
2019-01-30T07:53:31.680Z,10.13
2019-01-30T07:56:19.483Z,10.00
2019-01-30T07:59:07.177Z,10.13
2019-01-30T08:01:55.083Z,10.40
2019-01-30T08:04:42.852Z,7.57
2019-01-30T08:07:32.377Z,6.53
2019-01-30T08:10:20.216Z,6.80
2019-01-30T08:13:07.764Z,7.20
2019-01-30T08:15:55.681Z,6.93
2019-01-30T08:18:43.328Z,6.23
2019-01-30T08:21:31.107Z,6.27
2019-01-30T08:24:18.963Z,6.30
2019-01-30T08:27:06.851Z,6.90
2019-01-30T08:29:55.197Z,6.30
2019-01-30T08:32:43.074Z,6.37
2019-01-30T08:35:32.729Z,6.27
2019-01-30T08:38:20.566Z,6.00
2019-01-30T08:41:08.375Z,6.20
2019-01-30T08:43:57.978Z,5.90
2019-01-30T08:46:45.392Z,6.80
2019-01-30T08:49:33.304Z,6.07
2019-01-30T08:52:21.094Z,6.10
2019-01-30T08:55:11.030Z,6.27
2019-01-30T08:57:58.639Z,5.50
2019-01-30T09:00:46.277Z,5.73
2019-01-30T09:03:33.858Z,6.23
2019-01-30T09:06:21.713Z,5.37
2019-01-30T09:09:09.505Z,5.90
2019-01-30T09:11:57.786Z,6.13
2019-01-30T09:14:45.574Z,6.20
2019-01-30T09:17:33.480Z,6.87
2019-01-30T09:20:23.008Z,6.50
2019-01-30T09:23:10.593Z,6.03
2019-01-30T09:25:58.623Z,6.77
2019-01-30T09:28:46.349Z,6.07
2019-01-30T09:31:34.163Z,6.20
2019-01-30T09:34:21.936Z,6.33
2019-01-30T09:37:09.932Z,5.97
2019-01-30T09:39:57.848Z,5.03
2019-01-30T09:42:45.905Z,5.10
2019-01-30T09:45:33.636Z,5.80
2019-01-30T09:48:21.325Z,4.77
2019-01-30T09:51:09.241Z,5.20
2019-01-30T09:53:57.675Z,4.73
2019-01-30T09:56:45.320Z,4.83
2019-01-30T09:59:33.029Z,4.47
2019-01-30T10:02:20.933Z,4.60
2019-01-30T10:05:11.676Z,4.37
2019-01-30T10:07:59.205Z,4.10
2019-01-30T10:10:46.780Z,3.83
2019-01-30T10:13:34.504Z,4.03
2019-01-30T10:16:22.137Z,3.83
2019-01-30T10:19:10.022Z,3.10
2019-01-30T10:21:57.844Z,2.50
2019-01-30T10:24:45.768Z,2.90
2019-01-30T10:27:33.525Z,2.50
2019-01-30T10:30:33.416Z,2.80
2019-01-30T10:33:20.970Z,2.90
2019-01-30T10:36:08.917Z,2.57
2019-01-30T10:38:56.825Z,1.60
2019-01-30T10:41:44.683Z,1.70
2019-01-30T10:44:32.217Z,1.70
2019-01-30T10:47:19.868Z,1.37
2019-01-30T10:50:10.753Z,1.20
2019-01-30T10:52:58.698Z,1.10
2019-01-30T10:55:46.544Z,1.40
2019-01-30T10:58:34.320Z,1.20
2019-01-30T11:01:22.188Z,1.07
2019-01-30T11:04:09.771Z,1.20
2019-01-30T11:06:57.897Z,1.03
2019-01-30T11:09:45.772Z,0.77
2019-01-30T11:12:33.808Z,0.90
2019-01-30T11:15:27.380Z,0.80
2019-01-30T11:18:16.131Z,0.70
2019-01-30T11:21:05.983Z,0.80
2019-01-30T11:23:53.591Z,0.90
2019-01-30T11:26:41.449Z,0.90
2019-01-30T11:29:29.300Z,0.60
2019-01-30T11:32:16.893Z,0.67
2019-01-30T11:35:06.688Z,0.57
2019-01-30T11:37:54.543Z,0.80
2019-01-30T11:40:42.508Z,0.53
2019-01-30T11:43:30.153Z,0.57
2019-01-30T11:46:17.963Z,0.70
2019-01-30T11:49:05.933Z,0.50
2019-01-30T11:51:53.897Z,0.70
2019-01-30T11:54:41.700Z,0.60
2019-01-30T11:57:29.564Z,0.60
2019-01-30T12:00:30.853Z,0.60
2019-01-30T12:03:18.436Z,0.60
2019-01-30T12:06:06.488Z,0.63
2019-01-30T12:08:54.377Z,0.67
2019-01-30T12:11:41.955Z,0.80
2019-01-30T12:14:29.579Z,0.80
2019-01-30T12:17:17.338Z,0.70
2019-01-30T12:20:08.252Z,0.80
2019-01-30T12:22:56.008Z,0.77
2019-01-30T12:25:43.981Z,0.87
2019-01-30T12:28:31.570Z,0.70
2019-01-30T12:31:19.458Z,0.83
2019-01-30T12:34:07.626Z,0.70
2019-01-30T12:36:55.329Z,0.67
2019-01-30T12:39:42.944Z,0.57
2019-01-30T12:42:31.004Z,0.40
2019-01-30T12:45:21.909Z,0.70
2019-01-30T12:48:10.851Z,0.90
2019-01-30T12:50:58.681Z,1.10
2019-01-30T12:53:46.505Z,0.70
2019-01-30T12:56:34.236Z,0.90
2019-01-30T12:59:22.148Z,0.50
2019-01-30T13:02:10.093Z,0.80
2019-01-30T13:04:58.095Z,0.60
2019-01-30T13:07:45.723Z,0.90
2019-01-30T13:10:33.580Z,0.87
2019-01-30T13:13:21.511Z,0.80
2019-01-30T13:16:09.096Z,0.67
2019-01-30T13:18:56.524Z,0.93
2019-01-30T13:21:44.379Z,0.90
2019-01-30T13:24:32.232Z,0.73
2019-01-30T13:27:20.400Z,0.90
2019-01-30T13:30:14.164Z,1.00
2019-01-30T13:33:03.460Z,0.83
2019-01-30T13:35:51.296Z,0.90
2019-01-30T13:38:39.031Z,0.90
2019-01-30T13:41:26.925Z,0.67
2019-01-30T13:44:14.924Z,0.80
2019-01-30T13:47:02.768Z,0.80
2019-01-30T13:49:50.300Z,0.70
2019-01-30T13:52:38.232Z,0.80
2019-01-30T13:55:26.561Z,0.50
2019-01-30T13:58:14.216Z,0.50
2019-01-30T14:01:02.262Z,0.80
2019-01-30T14:03:49.907Z,0.90
2019-01-30T14:06:38.073Z,0.90
2019-01-30T14:09:25.986Z,0.87
2019-01-30T14:12:14.012Z,1.20
2019-01-30T14:15:01.758Z,0.90
2019-01-30T14:17:49.834Z,0.77
2019-01-30T14:20:37.480Z,0.93
2019-01-30T14:23:25.236Z,0.60
2019-01-30T14:26:13.036Z,0.73
2019-01-30T14:29:01.057Z,0.70
2019-01-30T14:31:48.874Z,0.80
2019-01-30T14:34:36.901Z,0.90
2019-01-30T14:37:24.900Z,0.80
2019-01-30T14:40:18.391Z,0.77
2019-01-30T14:43:06.265Z,1.40
2019-01-30T14:45:53.912Z,1.00
2019-01-30T14:48:41.919Z,1.30
2019-01-30T14:51:29.705Z,1.57
2019-01-30T14:54:17.771Z,2.33
2019-01-30T14:57:05.575Z,2.27
2019-01-30T14:59:53.496Z,0.60
2019-01-30T15:02:41.353Z,0.70
2019-01-30T15:05:30.326Z,0.77
2019-01-30T15:08:18.017Z,0.80
2019-01-30T15:11:05.956Z,0.67
2019-01-30T15:13:53.582Z,0.50
2019-01-30T15:16:41.350Z,0.77
2019-01-30T15:19:29.110Z,1.10
2019-01-30T15:22:16.740Z,0.80
2019-01-30T15:25:07.817Z,0.97
2019-01-30T15:27:56.306Z,0.60
2019-01-30T15:30:45.044Z,0.73
2019-01-30T15:33:32.767Z,0.50
2019-01-30T15:36:20.684Z,1.00
2019-01-30T15:39:09.108Z,0.80
2019-01-30T15:41:57.144Z,1.00
2019-01-30T15:44:45.096Z,0.80
2019-01-30T15:47:32.841Z,1.27
2019-01-30T15:50:40.944Z,2.20
2019-01-30T15:53:28.696Z,1.10
2019-01-30T15:56:16.380Z,1.37
2019-01-30T15:59:04.476Z,0.90
2019-01-30T16:01:52.044Z,1.20
2019-01-30T16:04:39.668Z,1.10
2019-01-30T16:07:27.697Z,0.83
2019-01-30T16:10:15.987Z,1.10
2019-01-30T16:13:04.516Z,1.53
2019-01-30T16:15:55.216Z,1.70
2019-01-30T16:18:42.935Z,0.80
2019-01-30T16:21:31.068Z,1.00
2019-01-30T16:24:18.924Z,1.30
2019-01-30T16:27:06.906Z,1.13
2019-01-30T16:29:54.509Z,0.90
2019-01-30T16:32:42.417Z,1.20
2019-01-30T16:35:33.540Z,1.30
2019-01-30T16:38:21.092Z,2.10
2019-01-30T16:41:09.000Z,1.33
2019-01-30T16:43:56.876Z,1.70
2019-01-30T16:46:44.480Z,1.57
2019-01-30T16:49:32.029Z,1.10
2019-01-30T16:52:19.947Z,1.33
2019-01-30T16:55:09.561Z,1.60
2019-01-30T16:57:57.557Z,1.50
2019-01-30T17:00:46.756Z,2.47
2019-01-30T17:03:34.892Z,1.73
2019-01-30T17:06:22.551Z,2.40
2019-01-30T17:09:10.822Z,13.93
2019-01-30T17:11:58.520Z,2.50
2019-01-30T17:14:46.080Z,1.50
2019-01-30T17:17:33.964Z,1.53
2019-01-30T17:20:27.424Z,1.47
2019-01-30T17:23:15.388Z,1.60
2019-01-30T17:26:02.948Z,1.50
2019-01-30T17:28:50.480Z,1.70
2019-01-30T17:31:38.444Z,1.50
2019-01-30T17:34:26.469Z,1.67
2019-01-30T17:37:14.177Z,1.50
2019-01-30T17:40:02.649Z,1.47
2019-01-30T17:42:50.735Z,1.90
2019-01-30T17:45:38.638Z,1.50
2019-01-30T17:48:26.199Z,9.83
2019-01-30T17:51:14.058Z,1.63
2019-01-30T17:54:01.693Z,1.97
2019-01-30T17:56:49.723Z,1.70
2019-01-30T17:59:37.630Z,2.40
2019-01-30T18:02:25.621Z,2.20
2019-01-30T18:05:13.528Z,1.77
2019-01-30T18:08:01.592Z,1.73
2019-01-30T18:10:49.229Z,1.77
2019-01-30T18:13:37.200Z,1.43
2019-01-30T18:16:26.840Z,1.87
2019-01-30T18:19:14.866Z,3.60
2019-01-30T18:22:02.479Z,3.20
2019-01-30T18:24:50.302Z,2.67
2019-01-30T18:27:38.128Z,2.00
2019-01-30T18:30:26.221Z,2.60
2019-01-30T18:33:13.917Z,1.87
2019-01-30T18:36:01.631Z,2.00
2019-01-30T18:38:49.545Z,2.13
2019-01-30T18:41:37.581Z,1.70
2019-01-30T18:44:25.323Z,1.97
2019-01-30T18:47:13.247Z,1.90
2019-01-30T18:50:01.130Z,1.70
2019-01-30T18:52:49.127Z,1.70
2019-01-30T18:55:37.032Z,1.90
2019-01-30T18:58:24.876Z,2.03
2019-01-30T19:01:12.664Z,1.80
2019-01-30T19:04:00.310Z,1.60
2019-01-30T19:06:52.375Z,1.60
2019-01-30T19:09:37.735Z,1.90
2019-01-30T19:12:25.590Z,1.53
2019-01-30T19:15:19.381Z,1.70
2019-01-30T19:18:07.710Z,1.40
2019-01-30T19:20:55.654Z,1.80
2019-01-30T19:23:43.472Z,1.80
2019-01-30T19:26:31.205Z,1.70
2019-01-30T19:29:18.968Z,1.93
2019-01-30T19:32:06.578Z,2.07
2019-01-30T19:34:54.400Z,3.47
2019-01-30T19:37:42.289Z,2.63
2019-01-30T19:40:30.387Z,2.10
2019-01-30T19:43:18.169Z,2.93
2019-01-30T19:46:05.953Z,2.17
2019-01-30T19:48:53.789Z,2.00
2019-01-30T19:51:41.823Z,2.30
2019-01-30T19:54:29.609Z,2.00
2019-01-30T19:57:17.243Z,2.10
2019-01-30T20:00:11.220Z,2.27
2019-01-30T20:03:00.216Z,2.10
2019-01-30T20:05:48.120Z,2.97
2019-01-30T20:08:36.212Z,1.77
2019-01-30T20:11:24.056Z,1.60
2019-01-30T20:14:11.679Z,1.60
2019-01-30T20:16:59.532Z,1.60
2019-01-30T20:19:47.337Z,2.20
2019-01-30T20:22:35.206Z,2.20
2019-01-30T20:25:28.916Z,1.77
2019-01-30T20:28:16.747Z,1.60
2019-01-30T20:31:04.836Z,1.80
2019-01-30T20:33:52.645Z,1.80
2019-01-30T20:36:40.399Z,1.83
2019-01-30T20:39:28.069Z,1.57
2019-01-30T20:42:15.624Z,1.80
2019-01-30T20:45:04.088Z,1.60
2019-01-30T20:47:52.076Z,1.87
2019-01-30T20:50:40.061Z,1.70
2019-01-30T20:53:27.592Z,2.00
2019-01-30T20:56:15.689Z,2.10
2019-01-30T20:59:03.361Z,1.77
2019-01-30T21:01:51.186Z,1.90
2019-01-30T21:04:39.020Z,1.83
2019-01-30T21:07:36.847Z,1.70
2019-01-30T21:10:24.928Z,1.70
2019-01-30T21:13:12.806Z,1.70
2019-01-30T21:16:00.687Z,1.70
2019-01-30T21:18:49.343Z,1.90
2019-01-30T21:21:36.793Z,1.80
2019-01-30T21:24:24.480Z,1.60
2019-01-30T21:27:12.200Z,1.77
2019-01-30T21:29:59.845Z,1.90
2019-01-30T21:32:47.499Z,1.70
2019-01-30T21:35:35.325Z,2.63
2019-01-30T21:38:22.926Z,1.90
2019-01-30T21:41:10.457Z,2.40
2019-01-30T21:43:57.992Z,1.80
2019-01-30T21:46:45.960Z,1.77
2019-01-30T21:49:33.838Z,1.83
2019-01-30T21:52:21.511Z,2.30
2019-01-30T21:55:12.697Z,2.07
2019-01-30T21:58:00.645Z,2.07
2019-01-30T22:00:48.809Z,2.20
2019-01-30T22:03:36.342Z,2.27
2019-01-30T22:06:23.961Z,2.40
2019-01-30T22:09:11.972Z,2.10
2019-01-30T22:11:59.756Z,2.50
2019-01-30T22:14:47.693Z,2.33
2019-01-30T22:17:35.151Z,2.47
2019-01-30T22:20:24.975Z,2.60
2019-01-30T22:23:12.856Z,2.53
2019-01-30T22:26:00.686Z,2.80
2019-01-30T22:28:48.566Z,2.90
2019-01-30T22:31:36.249Z,2.97
2019-01-30T22:34:23.943Z,2.93
2019-01-30T22:37:11.522Z,3.23
2019-01-30T22:39:59.384Z,2.83
2019-01-30T22:42:47.460Z,3.07
2019-01-30T22:45:35.346Z,3.10
2019-01-30T22:48:23.254Z,3.47
2019-01-30T22:51:11.156Z,3.17
2019-01-30T22:53:59.132Z,3.17
2019-01-30T22:56:47.181Z,3.40
2019-01-30T22:59:35.041Z,3.20
2019-01-30T23:02:22.922Z,3.30
2019-01-30T23:05:19.583Z,3.70
2019-01-30T23:08:09.899Z,3.00
2019-01-30T23:11:09.509Z,3.30
2019-01-30T23:13:57.747Z,3.37
2019-01-30T23:16:54.620Z,3.10
2019-01-30T23:19:45.305Z,3.33
2019-01-30T23:22:58.708Z,2.97
2019-01-30T23:25:49.469Z,2.83
2019-01-30T23:28:46.220Z,3.07
2019-01-30T23:31:50.236Z,3.40
2019-01-30T23:34:40.777Z,3.03
2019-01-30T23:37:34.421Z,3.40
2019-01-30T23:40:43.068Z,3.00
2019-01-30T23:43:48.683Z,3.30
2019-01-30T23:46:48.617Z,2.97
2019-01-30T23:49:39.281Z,3.40
2019-01-30T23:52:36.145Z,2.83
2019-01-30T23:55:51.372Z,3.13
2019-01-30T23:58:59.358Z,3.10
